Time;durP1;ratioP1;P1;durP2;ratioP2;P2;SDS_P1;SDS_P2;PMS_P1;PMS_P2;Temp;Humidity;BMP_temperature;BMP_pressure;BME280_temperature;BME280_humidity;BME280_pressure;Samples;Min_cycle;Max_cycle;Signal;HPM_P1;HPM_P2
2023/08/06 00:07:56;;;;;;;5.10;4.70;;;;;;;17.47;100.00;98262.46;437260;1253;140548;-66
2023/08/06 00:18:02;;;;;;;4.40;4.00;;;;;;;17.44;100.00;98173.56;435790;1254;140546;-66
2023/08/06 00:28:10;;;;;;;5.80;4.50;;;;;;;17.42;100.00;98176.45;435668;1253;140117;-66
2023/08/06 00:38:16;;;;;;;4.80;4.40;;;;;;;17.39;100.00;98254.29;435814;1254;140866;-67
2023/08/06 00:48:22;;;;;;;3.40;3.10;;;;;;;17.33;100.00;98279.26;435605;1251;139342;-66
2023/08/06 00:58:28;;;;;;;3.70;3.40;;;;;;;17.32;100.00;98252.07;435877;1251;140027;-66
2023/08/06 01:08:44;;;;;;;4.20;3.80;;;;;;;17.34;100.00;98219.17;436443;1253;139660;-67
2023/08/06 01:18:50;;;;;;;5.50;5.00;;;;;;;17.33;100.00;98228.30;436324;1251;139551;-67
2023/08/06 01:29:01;;;;;;;4.60;4.20;;;;;;;17.29;100.00;98217.73;436063;1251;140510;-67
2023/08/06 01:39:07;;;;;;;5.10;4.70;;;;;;;17.30;100.00;98180.69;436738;1254;140116;-67
2023/08/06 01:49:13;;;;;;;5.60;5.10;;;;;;;17.27;100.00;98182.23;436047;1251;140046;-67
2023/08/06 01:59:18;;;;;;;7.80;7.00;;;;;;;17.25;100.00;98212.06;435884;1251;139920;-68
2023/08/06 02:09:24;;;;;;;6.40;5.80;;;;;;;17.22;100.00;98044.92;435817;1251;139797;-69
2023/08/06 02:19:30;;;;;;;5.90;5.30;;;;;;;17.15;100.00;97876.91;435679;1253;140650;-67
2023/08/06 02:29:36;;;;;;;5.90;5.40;;;;;;;17.20;100.00;97784.64;435832;1251;139786;-67
2023/08/06 02:39:42;;;;;;;5.40;4.90;;;;;;;17.18;100.00;97762.29;435738;1254;139883;-68
2023/08/06 02:49:48;;;;;;;6.10;5.60;;;;;;;17.22;100.00;97830.42;435759;1251;140612;-67
2023/08/06 02:59:54;;;;;;;5.80;5.30;;;;;;;17.33;100.00;97936.69;435819;1251;141304;-66
2023/08/06 03:10:01;;;;;;;4.90;4.50;;;;;;;17.39;100.00;97888.38;435847;1253;139901;-67
2023/08/06 03:20:09;;;;;;;5.30;4.90;;;;;;;17.42;100.00;97856.67;435870;1253;140620;-67
2023/08/06 03:30:15;;;;;;;5.20;4.80;;;;;;;17.47;100.00;97855.58;436348;1250;139333;-68
2023/08/06 03:40:20;;;;;;;5.10;4.60;;;;;;;17.56;100.00;97858.59;435796;1253;139299;-67
2023/08/06 03:50:26;;;;;;;5.40;5.00;;;;;;;17.64;100.00;97856.23;435968;1251;139971;-68
2023/08/06 04:00:32;;;;;;;5.80;5.20;;;;;;;17.74;100.00;97856.70;436242;1253;139330;-67
2023/08/06 04:10:38;;;;;;;6.50;5.90;;;;;;;17.85;100.00;97855.27;438039;1251;139140;-67
2023/08/06 04:20:49;;;;;;;5.60;5.10;;;;;;;17.89;100.00;97844.83;435776;1251;139870;-67
2023/08/06 04:30:55;;;;;;;7.10;6.50;;;;;;;17.91;100.00;97843.04;435962;1253;139761;-67
2023/08/06 04:41:02;;;;;;;10.90;8.10;;;;;;;17.93;100.00;97833.61;436288;1249;139837;-67
2023/08/06 04:51:08;;;;;;;14.00;7.70;;;;;;;17.85;100.00;97821.28;435998;1250;140064;-68
2023/08/06 05:01:14;;;;;;;7.80;7.00;;;;;;;17.84;100.00;97818.95;435810;1251;139479;-67
2023/08/06 05:11:20;;;;;;;7.60;7.00;;;;;;;17.91;100.00;97810.69;436417;1253;140185;-67
2023/08/06 05:21:25;;;;;;;7.10;6.40;;;;;;;17.95;100.00;97792.27;435945;1253;140322;-68
2023/08/06 05:31:31;;;;;;;8.20;7.50;;;;;;;18.05;100.00;97782.27;435717;1253;140815;-68
2023/08/06 05:41:37;;;;;;;7.80;7.10;;;;;;;18.22;100.00;97766.12;435687;1251;140133;-68
2023/08/06 05:51:43;;;;;;;8.20;7.40;;;;;;;18.36;100.00;97754.45;435994;1253;140820;-67
2023/08/06 06:01:49;;;;;;;7.40;6.80;;;;;;;18.47;100.00;97748.56;435950;1253;139643;-67
2023/08/06 06:11:55;;;;;;;8.90;8.20;;;;;;;18.50;100.00;97740.16;436172;1250;139631;-68
2023/08/06 06:22:01;;;;;;;7.80;7.10;;;;;;;18.53;100.00;97726.02;436263;1253;139325;-67
2023/08/06 06:32:08;;;;;;;7.90;7.20;;;;;;;18.74;100.00;97696.35;436387;1253;140603;-67
2023/08/06 06:42:14;;;;;;;9.80;7.50;;;;;;;18.89;100.00;97684.55;435931;1253;139527;-67
2023/08/06 06:52:20;;;;;;;7.80;7.20;;;;;;;18.87;100.00;97671.35;436005;1251;139503;-68
2023/08/06 07:02:26;;;;;;;7.80;7.10;;;;;;;18.79;100.00;97666.33;435998;1250;140147;-68
2023/08/06 07:12:32;;;;;;;7.70;6.90;;;;;;;18.90;100.00;97655.64;435955;1253;140019;-67
2023/08/06 07:22:38;;;;;;;8.10;7.40;;;;;;;19.07;100.00;97643.04;435971;1253;139489;-67
2023/08/06 07:32:44;;;;;;;6.80;6.10;;;;;;;19.20;100.00;97641.92;435951;1250;139865;-67
2023/08/06 07:42:49;;;;;;;12.80;11.60;;;;;;;19.35;100.00;97632.15;436275;1253;139577;-67
2023/08/06 07:52:56;;;;;;;13.00;11.20;;;;;;;19.36;100.00;97625.57;435783;1250;140019;-67
2023/08/06 08:03:01;;;;;;;13.70;12.30;;;;;;;19.51;100.00;97599.70;436374;1251;140691;-68
2023/08/06 08:13:08;;;;;;;13.10;11.80;;;;;;;19.72;100.00;97609.23;436179;1253;140214;-68
2023/08/06 08:23:13;;;;;;;12.60;11.30;;;;;;;19.84;100.00;97608.27;435991;1253;140874;-67
2023/08/06 08:33:19;;;;;;;11.10;10.10;;;;;;;20.15;100.00;97601.88;436047;1250;142733;-66
2023/08/06 08:43:25;;;;;;;9.60;8.70;;;;;;;20.24;100.00;97585.27;436419;1251;140934;-67
2023/08/06 08:53:31;;;;;;;8.10;7.30;;;;;;;20.48;100.00;97566.63;435934;1250;139331;-66
2023/08/06 09:03:37;;;;;;;7.30;6.60;;;;;;;20.95;100.00;97541.45;435774;1253;140685;-67
2023/08/06 09:13:43;;;;;;;7.00;6.40;;;;;;;21.47;100.00;97536.60;436909;1252;140480;-66
2023/08/06 09:23:49;;;;;;;7.10;5.80;;;;;;;21.75;100.00;97512.77;436094;1251;140015;-67
2023/08/06 09:33:55;;;;;;;7.90;7.10;;;;;;;21.48;99.95;97519.38;436130;1253;141025;-67
2023/08/06 09:44:01;;;;;;;8.50;6.60;;;;;;;21.34;99.99;97500.74;435615;1250;139973;-68
2023/08/06 09:54:09;;;;;;;9.40;8.50;;;;;;;21.19;99.77;97496.94;435677;1253;140291;-67
2023/08/06 10:04:32;;;;;;;14.40;12.20;;;;;;;21.10;100.00;97490.98;435951;1251;139404;-67
2023/08/06 10:14:49;;;;;;;13.80;11.70;;;;;;;20.84;100.00;97473.90;435746;1250;140202;-67
2023/08/06 10:24:56;;;;;;;15.60;13.90;;;;;;;20.70;100.00;97465.35;436098;1251;140577;-65
2023/08/06 10:35:02;;;;;;;15.40;13.90;;;;;;;20.66;100.00;97450.17;436692;1251;140998;-77
2023/08/06 10:45:19;;;;;;;18.90;17.00;;;;;;;20.83;100.00;97444.52;436756;1250;140006;-66
2023/08/06 10:55:29;;;;;;;18.10;16.20;;;;;;;21.07;100.00;97430.87;435796;1253;141105;-66
2023/08/06 11:05:35;;;;;;;17.60;15.80;;;;;;;21.43;100.00;97408.55;436265;1253;139971;-67
2023/08/06 11:15:41;;;;;;;17.80;15.90;;;;;;;22.09;100.00;97397.40;436651;1253;139907;-69
2023/08/06 11:25:47;;;;;;;18.50;16.60;;;;;;;22.77;99.38;97389.45;435861;1253;140171;-67
2023/08/06 11:35:55;;;;;;;16.10;14.40;;;;;;;23.27;97.26;97382.42;436269;1251;140581;-67
2023/08/06 11:46:01;;;;;;;14.80;13.40;;;;;;;22.80;96.42;97367.48;435904;1253;139657;-67
2023/08/06 11:56:07;;;;;;;8.20;7.20;;;;;;;22.21;96.24;97367.34;435690;1250;139805;-68
2023/08/06 12:06:13;;;;;;;1.60;1.50;;;;;;;-38.42;57.73;58446.39;434558;1250;1002007;-72
2023/08/06 12:16:21;;;;;;;3.60;0.50;;;;;;;-128.00;-1.00;-1.00;436307;1251;1047758;-74
2023/08/06 12:26:30;;;;;;;1.50;0.50;;;;;;;-128.00;-1.00;-1.00;432670;1251;1047902;-77
2023/08/06 12:36:36;;;;;;;0.30;0.30;;;;;;;-128.00;-1.00;-1.00;436050;1253;1060589;-75
2023/08/06 12:46:42;;;;;;;0.90;0.40;;;;;;;-128.00;-1.00;-1.00;432286;1253;1056668;-74
2023/08/06 12:56:48;;;;;;;0.50;0.50;;;;;;;-128.00;-1.00;-1.00;432097;1253;1060517;-76
2023/08/06 13:06:54;;;;;;;0.50;0.50;;;;;;;-128.00;-1.00;-1.00;435917;1251;1046112;-76
2023/08/06 13:17:01;;;;;;;0.30;0.30;;;;;;;-128.00;-1.00;-1.00;435846;1250;1050165;-76
2023/08/06 13:27:09;;;;;;;0.70;0.70;;;;;;;-128.00;-1.00;-1.00;436049;1250;1062133;-75
2023/08/06 13:37:15;;;;;;;1.50;0.80;;;;;;;-128.00;-1.00;-1.00;436252;1251;1055304;-78
2023/08/06 13:47:21;;;;;;;1.50;0.50;;;;;;;-128.00;-1.00;-1.00;434815;1251;1058909;-78
2023/08/06 13:57:27;;;;;;;0.30;0.30;;;;;;;-128.00;-1.00;-1.00;432857;1250;1141659;-75
2023/08/06 14:07:32;;;;;;;0.80;0.10;;;;;;;-128.00;-1.00;-1.00;432193;1250;1047209;-75
2023/08/06 14:17:40;;;;;;;0.20;0.20;;;;;;;-128.00;-1.00;-1.00;436330;1250;1065614;-75
2023/08/06 14:27:46;;;;;;;1.00;0.20;;;;;;;-128.00;-1.00;-1.00;432306;1249;1056055;-73
2023/08/06 14:37:52;;;;;;;0.20;0.20;;;;;;;-128.00;-1.00;-1.00;435921;1251;1061228;-72
2023/08/06 14:47:58;;;;;;;2.60;0.20;;;;;;;-128.00;-1.00;-1.00;436131;1250;1047479;-71
2023/08/06 14:58:04;;;;;;;1.50;0.20;;;;;;;-128.00;-1.00;-1.00;432614;1253;1046887;-73
2023/08/06 15:08:10;;;;;;;0.60;0.60;;;;;;;-128.00;-1.00;-1.00;434775;1250;1061562;-74
2023/08/06 15:18:16;;;;;;;0.50;0.50;;;;;;;-128.00;-1.00;-1.00;435979;1251;1058518;-73
2023/08/06 15:28:22;;;;;;;0.30;0.30;;;;;;;-128.00;-1.00;-1.00;434987;1253;1059781;-73
2023/08/06 15:38:27;;;;;;;0.40;0.40;;;;;;;-128.00;-1.00;-1.00;436044;1253;1046513;-72
2023/08/06 15:48:33;;;;;;;0.80;0.40;;;;;;;-128.00;-1.00;-1.00;436045;1253;1047272;-72
2023/08/06 15:58:39;;;;;;;0.60;0.20;;;;;;;-128.00;-1.00;-1.00;435981;1253;1061176;-71
2023/08/06 16:08:46;;;;;;;0.90;0.50;;;;;;;-128.00;-1.00;-1.00;432318;1253;1056646;-72
2023/08/06 16:18:52;;;;;;;0.40;0.40;;;;;;;-128.00;-1.00;-1.00;432307;1253;1059298;-72
2023/08/06 16:28:57;;;;;;;1.10;0.70;;;;;;;-128.00;-1.00;-1.00;432019;1252;1048343;-71
2023/08/06 16:39:05;;;;;;;0.60;0.60;;;;;;;-128.00;-1.00;-1.00;432009;1251;1050913;-72
2023/08/06 16:49:10;;;;;;;0.80;0.30;;;;;;;-128.00;-1.00;-1.00;432109;1253;1061932;-72
2023/08/06 16:59:16;;;;;;;0.30;0.20;;;;;;;-128.00;-1.00;-1.00;432277;1253;1055513;-72
2023/08/06 17:09:22;;;;;;;3.20;0.90;;;;;;;-128.00;-1.00;-1.00;432108;1251;1058704;-72
2023/08/06 17:19:28;;;;;;;3.70;1.20;;;;;;;-128.00;-1.00;-1.00;431717;1250;1047085;-70
2023/08/06 17:29:33;;;;;;;0.40;0.30;;;;;;;-128.00;-1.00;-1.00;431626;1251;1046971;-71
2023/08/06 17:39:40;;;;;;;1.40;0.50;;;;;;;-128.00;-1.00;-1.00;431718;1253;1061621;-72
2023/08/06 17:49:46;;;;;;;2.70;0.70;;;;;;;-128.00;-1.00;-1.00;432094;1253;1057907;-72
2023/08/06 17:59:52;;;;;;;1.10;0.50;;;;;;;-128.00;-1.00;-1.00;432129;1254;1061659;-73
2023/08/06 18:09:58;;;;;;;0.80;0.80;;;;;;;-128.00;-1.00;-1.00;432799;1251;1048624;-75
2023/08/06 18:20:29;;;;;;;1.10;0.20;;;;;;;15.47;100.00;97751.70;421906;1295;600987;-72
2023/08/06 18:30:35;;;;;;;0.40;0.20;;;;;;;15.26;100.00;97759.73;431916;1269;138524;-71
2023/08/06 18:40:41;;;;;;;0.30;0.20;;;;;;;15.13;100.00;97772.98;432306;1269;139141;-72
2023/08/06 18:50:47;;;;;;;1.10;0.20;;;;;;;14.96;100.00;97778.71;432435;1269;138818;-72
2023/08/06 19:00:58;;;;;;;0.40;0.30;;;;;;;14.80;100.00;97780.27;432596;1263;138285;-72
2023/08/06 19:11:04;;;;;;;0.20;0.20;;;;;;;14.68;100.00;97783.14;432194;1269;138275;-72
2023/08/06 19:21:10;;;;;;;0.60;0.60;;;;;;;14.51;100.00;97787.05;432036;1266;138692;-72
2023/08/06 19:31:15;;;;;;;0.30;0.30;;;;;;;14.51;100.00;97779.70;432966;1263;139080;-71
2023/08/06 19:41:24;;;;;;;0.20;0.20;;;;;;;14.37;100.00;97786.52;434894;1257;139365;-72
2023/08/06 19:51:30;;;;;;;0.30;0.30;;;;;;;14.30;100.00;97813.89;434875;1258;138349;-72
2023/08/06 20:01:36;;;;;;;0.40;0.30;;;;;;;14.24;100.00;97832.27;433940;1258;139267;-71
2023/08/06 20:11:42;;;;;;;0.80;0.30;;;;;;;14.13;100.00;97828.70;434206;1260;139316;-71
2023/08/06 20:21:48;;;;;;;0.40;0.40;;;;;;;14.02;100.00;97829.33;433878;1257;139501;-70
2023/08/06 20:31:54;;;;;;;0.40;0.40;;;;;;;13.86;100.00;97837.48;433843;1257;140428;-70
2023/08/06 20:42:00;;;;;;;0.70;0.60;;;;;;;13.85;100.00;97837.58;434009;1257;138591;-70
2023/08/06 20:52:08;;;;;;;0.70;0.70;;;;;;;13.83;100.00;97842.89;434248;1258;138657;-71
2023/08/06 21:02:14;;;;;;;0.70;0.70;;;;;;;13.79;100.00;97837.46;434489;1260;139403;-71
2023/08/06 21:12:20;;;;;;;0.80;0.80;;;;;;;13.69;100.00;97824.79;433822;1260;138596;-71
2023/08/06 21:22:25;;;;;;;1.00;0.90;;;;;;;13.60;100.00;97822.77;433822;1260;138779;-72
2023/08/06 21:32:31;;;;;;;0.50;0.50;;;;;;;13.61;100.00;97833.09;434164;1260;140298;-73
2023/08/06 21:42:37;;;;;;;1.00;0.90;;;;;;;13.65;100.00;97821.05;434464;1257;139491;-74
2023/08/06 21:52:43;;;;;;;0.80;0.70;;;;;;;13.66;100.00;97841.86;434114;1257;138768;-73
2023/08/06 22:02:49;;;;;;;0.60;0.60;;;;;;;13.66;100.00;97870.96;433826;1259;139869;-73
2023/08/06 22:12:54;;;;;;;1.30;0.60;;;;;;;13.68;100.00;97880.81;433809;1257;138636;-72
2023/08/06 22:23:00;;;;;;;1.90;1.20;;;;;;;13.67;100.00;97891.32;433805;1260;139256;-71
2023/08/06 22:33:06;;;;;;;0.90;0.90;;;;;;;13.70;100.00;97907.58;433826;1260;139650;-71
2023/08/06 22:43:12;;;;;;;1.50;1.40;;;;;;;13.67;100.00;97919.08;433757;1257;139106;-72
2023/08/06 22:53:18;;;;;;;5.80;1.70;;;;;;;13.61;100.00;97926.23;434770;1257;138832;-71
2023/08/06 23:03:24;;;;;;;1.10;1.00;;;;;;;13.54;100.00;97931.14;433652;1259;140115;-71
2023/08/06 23:13:30;;;;;;;1.20;1.10;;;;;;;13.53;100.00;97932.87;435484;1259;139642;-70
2023/08/06 23:23:36;;;;;;;1.20;1.20;;;;;;;13.51;100.00;97939.61;434508;1256;138614;-70
2023/08/06 23:33:41;;;;;;;0.80;0.80;;;;;;;13.44;100.00;97969.93;433987;1257;139355;-71
2023/08/06 23:43:47;;;;;;;1.00;0.80;;;;;;;13.41;100.00;97981.98;434594;1257;140473;-70
2023/08/06 23:53:53;;;;;;;1.30;1.20;;;;;;;13.40;100.00;97982.10;435310;1259;138543;-69
